Time;durP1;ratioP1;P1;durP2;ratioP2;P2;SDS_P1;SDS_P2;PMS_P1;PMS_P2;Temp;Humidity;BMP_temperature;BMP_pressure;BME280_temperature;BME280_humidity;BME280_pressure;Samples;Min_cycle;Max_cycle;Signal;HPM_P1;HPM_P2
2022/11/24 00:01:06;;;;;;;28.17;13.23;;;;;;;9.83;100.00;95933.53;4984103;28;20046;-55
2022/11/24 00:03:33;;;;;;;22.70;12.15;;;;;;;9.91;100.00;95952.47;4985392;28;20078;-56
2022/11/24 00:06:06;;;;;;;20.60;12.38;;;;;;;9.84;100.00;95955.25;4985618;28;20440;-60
2022/11/24 00:08:34;;;;;;;18.27;11.37;;;;;;;9.70;100.00;95952.47;4985863;28;20453;-60
2022/11/24 00:11:07;;;;;;;16.88;10.77;;;;;;;9.58;100.00;95947.28;4984825;28;20577;-59
2022/11/24 00:13:34;;;;;;;19.70;11.40;;;;;;;9.62;100.00;95959.16;4985539;28;20531;-59
2022/11/24 00:16:05;;;;;;;18.17;11.45;;;;;;;9.49;100.00;95951.59;4985196;28;20117;-59
2022/11/24 00:18:32;;;;;;;21.50;11.85;;;;;;;9.10;100.00;95890.66;4985166;28;20133;-55
2022/11/24 00:20:58;;;;;;;18.95;10.75;;;;;;;9.44;100.00;95933.41;4988297;28;20152;-60
2022/11/24 00:23:25;;;;;;;17.95;10.45;;;;;;;9.46;100.00;95949.59;4988917;28;20073;-59
2022/11/24 00:25:52;;;;;;;19.13;11.30;;;;;;;9.50;100.00;95948.44;4988772;28;20132;-57
2022/11/24 00:28:18;;;;;;;20.02;11.20;;;;;;;9.44;100.00;95949.22;4989331;28;20055;-55
2022/11/24 00:30:45;;;;;;;21.98;11.68;;;;;;;9.26;100.00;95957.44;4980355;28;20153;-55
2022/11/24 00:33:12;;;;;;;24.15;11.98;;;;;;;9.19;100.00;95951.88;4969114;28;20101;-57
2022/11/24 00:35:38;;;;;;;20.55;12.25;;;;;;;9.12;100.00;95958.16;4969801;28;20137;-56
2022/11/24 00:38:05;;;;;;;23.15;12.70;;;;;;;9.06;100.00;95958.91;4969497;28;20093;-59
2022/11/24 00:40:31;;;;;;;19.00;12.07;;;;;;;9.11;100.00;95978.69;4969648;28;20114;-55
2022/11/24 00:43:00;;;;;;;19.40;11.95;;;;;;;8.86;100.00;95902.38;4969410;28;20046;-55
2022/11/24 00:45:27;;;;;;;19.10;10.93;;;;;;;9.24;100.00;95951.50;4968105;28;20121;-55
2022/11/24 00:47:53;;;;;;;25.20;13.02;;;;;;;9.30;100.00;95952.72;4969310;28;20569;-59
2022/11/24 00:50:20;;;;;;;22.38;12.73;;;;;;;9.17;100.00;95943.16;4969530;28;20129;-55
2022/11/24 00:52:46;;;;;;;22.10;11.85;;;;;;;9.36;100.00;95964.97;4969820;28;20130;-59
2022/11/24 00:55:13;;;;;;;21.55;12.00;;;;;;;9.22;100.00;95917.94;4969675;28;20097;-60
2022/11/24 00:57:40;;;;;;;22.17;12.25;;;;;;;9.58;100.00;95952.81;4969207;28;20138;-54
2022/11/24 01:00:07;;;;;;;28.10;15.00;;;;;;;9.73;100.00;95959.97;4969443;28;20050;-60
2022/11/24 01:02:34;;;;;;;29.08;15.52;;;;;;;9.81;100.00;95953.28;4968895;28;20141;-55
2022/11/24 01:05:02;;;;;;;27.95;15.30;;;;;;;9.79;100.00;95958.41;4967632;28;20113;-55
2022/11/24 01:07:29;;;;;;;25.30;14.60;;;;;;;9.59;100.00;95948.88;4969075;28;20074;-55
2022/11/24 01:09:56;;;;;;;24.88;14.65;;;;;;;9.83;100.00;95964.72;4969339;28;20043;-55
2022/11/24 01:12:23;;;;;;;21.23;12.98;;;;;;;9.85;100.00;95956.81;4968433;28;20741;-55
2022/11/24 01:14:49;;;;;;;22.52;13.60;;;;;;;9.84;100.00;95960.78;4968909;28;20145;-56
2022/11/24 01:17:16;;;;;;;26.13;12.98;;;;;;;9.86;100.00;95930.78;4968906;28;20529;-55
2022/11/24 01:19:42;;;;;;;22.92;13.43;;;;;;;10.03;100.00;95946.59;4969324;28;20058;-55
2022/11/24 01:22:09;;;;;;;26.42;13.23;;;;;;;10.00;100.00;95946.59;4968601;28;20126;-59
2022/11/24 01:24:35;;;;;;;23.13;13.15;;;;;;;10.03;100.00;95954.91;4968801;28;20497;-55
2022/11/24 01:27:02;;;;;;;24.48;13.07;;;;;;;9.94;100.00;95934.34;4968798;28;20128;-60
2022/11/24 01:29:29;;;;;;;23.35;12.55;;;;;;;10.07;100.00;95957.66;4967324;28;20517;-56
2022/11/24 01:31:55;;;;;;;20.75;12.80;;;;;;;10.11;100.00;95955.72;4984566;28;20297;-59
2022/11/24 01:34:22;;;;;;;19.80;11.60;;;;;;;10.07;100.00;95958.47;4988402;28;20100;-55
2022/11/24 01:36:49;;;;;;;18.00;10.52;;;;;;;10.15;100.00;95964.81;4987732;28;20137;-56
2022/11/24 01:39:15;;;;;;;17.50;10.95;;;;;;;10.02;100.00;95945.00;4988011;28;20149;-60
2022/11/24 01:41:42;;;;;;;18.05;10.85;;;;;;;10.11;100.00;95958.50;4988062;28;20157;-59
2022/11/24 01:44:22;;;;;;;18.20;12.35;;;;;;;10.07;100.00;95964.00;4987649;28;20502;-61
2022/11/24 01:46:54;;;;;;;19.45;12.20;;;;;;;10.00;100.00;95963.19;4987783;28;20077;-61
2022/11/24 01:49:25;;;;;;;20.85;11.93;;;;;;;9.54;100.00;95885.66;4988036;28;20077;-62
2022/11/24 01:51:52;;;;;;;20.23;11.70;;;;;;;9.99;100.00;95962.38;4986356;28;20181;-57
2022/11/24 01:54:48;;;;;;;21.15;11.85;;;;;;;9.91;100.00;95960.78;4986645;28;20196;-61
2022/11/24 01:57:24;;;;;;;18.40;9.88;;;;;;;9.47;100.00;95916.03;4987209;28;20073;-60
2022/11/24 01:59:56;;;;;;;21.92;10.98;;;;;;;9.83;100.00;95967.47;4986302;28;20156;-58
2022/11/24 02:02:24;;;;;;;24.73;12.27;;;;;;;9.90;100.00;95961.19;4987178;28;20592;-57
2022/11/24 02:04:52;;;;;;;17.52;11.18;;;;;;;9.93;100.00;95969.50;4987738;28;20114;-61
2022/11/24 02:07:19;;;;;;;22.70;11.30;;;;;;;9.59;100.00;95925.97;4987526;28;20137;-59
2022/11/24 02:09:57;;;;;;;18.55;10.95;;;;;;;9.95;100.00;95961.59;4987700;28;20080;-57
2022/11/24 02:12:25;;;;;;;19.60;10.55;;;;;;;9.83;100.00;95981.31;4986959;28;20511;-61
2022/11/24 02:14:53;;;;;;;14.10;9.20;;;;;;;9.72;100.00;95969.44;4987470;28;20082;-61
2022/11/24 02:17:20;;;;;;;17.08;9.90;;;;;;;9.71;100.00;95956.78;4987131;28;20050;-57
2022/11/24 02:20:02;;;;;;;16.50;10.25;;;;;;;9.70;100.00;95954.44;4987382;28;20541;-61
2022/11/24 02:23:01;;;;;;;17.77;9.27;;;;;;;9.68;100.00;95951.25;4985832;28;20426;-61
2022/11/24 02:25:45;;;;;;;19.67;10.48;;;;;;;9.56;100.00;95980.06;4995414;28;20165;-57
2022/11/24 02:28:16;;;;;;;13.32;8.80;;;;;;;9.40;100.00;95954.72;4986633;28;20054;-57
2022/11/24 02:30:43;;;;;;;16.83;9.80;;;;;;;9.35;100.00;95960.63;4987085;28;20054;-61
2022/11/24 02:33:11;;;;;;;16.83;9.68;;;;;;;9.16;100.00;95961.72;4986767;28;20089;-56
2022/11/24 02:35:38;;;;;;;16.05;9.23;;;;;;;9.05;100.00;95952.59;4985491;28;20093;-60
2022/11/24 02:38:05;;;;;;;20.02;10.15;;;;;;;8.35;100.00;95863.06;4987015;28;20140;-61
2022/11/24 02:40:32;;;;;;;19.33;10.80;;;;;;;8.90;100.00;95958.41;4987052;28;20137;-57
2022/11/24 02:43:08;;;;;;;17.40;10.32;;;;;;;8.84;100.00;95962.72;4985824;28;20456;-60
2022/11/24 02:45:34;;;;;;;24.02;11.77;;;;;;;8.46;100.00;95919.09;4986854;28;20046;-59
2022/11/24 02:48:01;;;;;;;21.08;10.98;;;;;;;8.50;100.00;95914.41;4986782;28;20140;-57
2022/11/24 02:50:27;;;;;;;17.42;9.80;;;;;;;8.72;100.00;95940.97;4987003;28;20141;-61
2022/11/24 02:52:54;;;;;;;20.10;11.13;;;;;;;8.76;100.00;95942.56;4986333;28;20133;-61
2022/11/24 02:55:22;;;;;;;22.33;11.73;;;;;;;8.72;100.00;95946.47;4986791;28;20529;-61
2022/11/24 02:57:49;;;;;;;20.63;11.40;;;;;;;8.73;100.00;95950.81;4986542;28;20093;-61
2022/11/24 03:00:16;;;;;;;26.88;13.30;;;;;;;8.31;100.00;95889.84;4986852;28;20062;-61
2022/11/24 03:02:43;;;;;;;28.38;14.68;;;;;;;8.71;100.00;95939.41;4985095;28;20058;-62
2022/11/24 03:05:11;;;;;;;23.98;12.73;;;;;;;8.59;100.00;95917.63;4986709;28;20046;-57
2022/11/24 03:07:37;;;;;;;26.27;13.45;;;;;;;8.66;100.00;95946.03;4986616;28;20117;-60
2022/11/24 03:10:05;;;;;;;23.50;13.20;;;;;;;8.64;100.00;95937.38;4986140;28;20062;-61
2022/11/24 03:12:31;;;;;;;30.15;14.00;;;;;;;8.63;100.00;95941.28;4986279;28;20062;-61
2022/11/24 03:14:58;;;;;;;31.02;14.85;;;;;;;8.58;100.00;95947.16;4986709;28;20141;-56
2022/11/24 03:17:25;;;;;;;23.80;12.25;;;;;;;8.17;100.00;95867.66;4986440;28;20078;-61
2022/11/24 03:19:51;;;;;;;25.00;13.07;;;;;;;8.62;100.00;95944.44;4986525;28;20141;-61
2022/11/24 03:22:18;;;;;;;23.67;13.57;;;;;;;8.62;100.00;95944.44;4986383;28;20139;-57
2022/11/24 03:24:44;;;;;;;23.40;12.90;;;;;;;8.54;100.00;95948.31;4986549;28;20054;-61
2022/11/24 03:27:11;;;;;;;27.10;13.57;;;;;;;8.47;100.00;95948.28;4985981;28;20169;-57
2022/11/24 03:29:38;;;;;;;25.52;14.50;;;;;;;8.44;100.00;95951.81;4984812;28;20050;-61
2022/11/24 03:32:04;;;;;;;29.63;15.98;;;;;;;8.43;100.00;95959.28;4985611;28;20569;-61
2022/11/24 03:34:31;;;;;;;28.65;15.30;;;;;;;8.39;100.00;95954.94;4986013;28;20109;-56
2022/11/24 03:36:58;;;;;;;25.67;15.23;;;;;;;8.31;100.00;95956.03;4985963;28;20142;-57
2022/11/24 03:39:25;;;;;;;26.77;13.80;;;;;;;8.26;100.00;95948.91;4986215;28;20085;-61
2022/11/24 03:41:51;;;;;;;25.58;14.63;;;;;;;7.86;100.00;95915.84;4984552;28;20078;-61
2022/11/24 03:44:18;;;;;;;33.50;18.45;;;;;;;8.22;100.00;95947.28;4985935;28;20161;-56
2022/11/24 03:46:44;;;;;;;30.88;17.10;;;;;;;8.12;100.00;95959.00;4985818;28;20532;-61
2022/11/24 03:49:11;;;;;;;33.28;16.75;;;;;;;7.68;100.00;95899.13;4986026;28;20336;-56
2022/11/24 03:51:38;;;;;;;35.45;18.67;;;;;;;7.74;100.00;95911.38;4985571;28;20153;-61
2022/11/24 03:54:05;;;;;;;34.30;19.67;;;;;;;8.01;100.00;95966.38;4985341;28;20053;-61
2022/11/24 03:56:32;;;;;;;34.97;18.73;;;;;;;7.66;100.00;95915.28;4984243;28;20046;-59
2022/11/24 03:58:58;;;;;;;36.92;18.98;;;;;;;7.79;100.00;95939.78;4984091;28;20489;-61
2022/11/24 04:01:25;;;;;;;37.95;18.65;;;;;;;7.81;100.00;95970.53;4984347;28;20046;-56
2022/11/24 04:03:52;;;;;;;37.63;18.83;;;;;;;7.59;100.00;95973.06;4985575;28;20123;-57
2022/11/24 04:06:18;;;;;;;33.28;17.40;;;;;;;7.06;100.00;95864.25;4984005;28;20090;-61
2022/11/24 04:08:45;;;;;;;27.05;17.02;;;;;;;7.72;100.00;95974.38;4985311;28;20058;-58
2022/11/24 04:12:42;;;;;;;30.23;16.35;;;;;;;7.70;100.00;95982.22;4985104;28;20133;-57
2022/11/24 04:13:58;;;;;;;28.40;16.98;;;;;;;7.62;100.00;95983.31;4985575;28;20430;-61
2022/11/24 04:16:25;;;;;;;31.83;17.35;;;;;;;7.62;100.00;95986.06;4983916;28;20074;-60
2022/11/24 04:18:52;;;;;;;36.20;17.15;;;;;;;7.52;100.00;95981.22;4985626;28;20073;-57
2022/11/24 04:21:19;;;;;;;43.83;20.20;;;;;;;7.45;100.00;95983.91;4985186;28;20050;-61
2022/11/24 04:23:46;;;;;;;36.42;20.27;;;;;;;7.42;100.00;95992.13;4984242;28;20536;-61
2022/11/24 04:26:13;;;;;;;32.88;18.67;;;;;;;7.36;100.00;95983.44;4985340;28;20074;-56
2022/11/24 04:28:40;;;;;;;39.90;18.92;;;;;;;7.30;100.00;95987.66;4983554;28;20253;-57
2022/11/24 04:31:06;;;;;;;32.60;18.70;;;;;;;7.32;100.00;95990.84;4985035;28;20143;-57
2022/11/24 04:33:33;;;;;;;36.35;19.48;;;;;;;7.26;100.00;95995.09;4985109;28;20058;-61
2022/11/24 04:35:59;;;;;;;36.00;17.80;;;;;;;7.26;100.00;96022.63;4985360;28;20062;-56
2022/11/24 04:38:26;;;;;;;48.38;23.27;;;;;;;7.22;100.00;96002.50;4984862;28;20113;-60
2022/11/24 04:41:13;;;;;;;39.33;20.08;;;;;;;6.80;100.00;95966.16;4984372;28;20062;-61
2022/11/24 04:43:39;;;;;;;33.60;18.50;;;;;;;6.66;100.00;95921.94;4985210;28;20082;-61
2022/11/24 04:46:09;;;;;;;32.88;20.83;;;;;;;6.75;100.00;95952.72;4983690;28;20495;-57
2022/11/24 04:48:36;;;;;;;45.08;27.88;;;;;;;7.05;100.00;96016.84;4984966;28;20093;-61
2022/11/24 04:51:06;;;;;;;38.35;26.90;;;;;;;6.81;100.00;95992.50;4985101;28;20129;-57
2022/11/24 04:53:32;;;;;;;35.00;21.05;;;;;;;6.95;100.00;96012.00;4985096;28;20137;-61
2022/11/24 04:56:04;;;;;;;30.17;19.00;;;;;;;6.90;100.00;96015.06;4985084;28;20621;-61
2022/11/24 04:58:30;;;;;;;40.28;22.67;;;;;;;6.54;100.00;95968.13;4983777;28;20091;-58
2022/11/24 05:00:57;;;;;;;33.83;18.50;;;;;;;6.97;100.00;96015.16;4984889;28;20092;-56
2022/11/24 05:03:23;;;;;;;29.58;17.33;;;;;;;6.29;100.00;95918.28;4984939;28;20478;-59
2022/11/24 05:05:50;;;;;;;36.92;21.70;;;;;;;6.51;100.00;95969.69;4985731;28;20085;-55
2022/11/24 05:08:17;;;;;;;31.27;17.88;;;;;;;6.88;100.00;96028.41;4988427;28;20137;-57
2022/11/24 05:10:43;;;;;;;39.83;20.48;;;;;;;6.85;100.00;96029.13;4988582;28;20559;-56
2022/11/24 05:13:11;;;;;;;41.67;20.92;;;;;;;6.67;100.00;96033.56;4988068;28;20185;-61
2022/11/24 05:15:39;;;;;;;65.15;30.77;;;;;;;6.65;100.00;96030.41;4988091;28;20387;-57
2022/11/24 05:18:09;;;;;;;77.65;29.75;;;;;;;5.83;100.00;95900.25;4986914;28;20121;-56
2022/11/24 05:20:36;;;;;;;60.65;21.40;;;;;;;6.27;100.00;95967.34;4987993;28;20054;-56
2022/11/24 05:23:05;;;;;;;44.85;18.90;;;;;;;6.67;100.00;96039.06;4987499;28;20129;-57
2022/11/24 05:25:35;;;;;;;47.58;19.70;;;;;;;6.67;100.00;96041.81;4986569;28;20129;-61
2022/11/24 05:28:04;;;;;;;41.17;18.92;;;;;;;6.68;100.00;96040.69;4988085;28;20157;-57
2022/11/24 05:30:31;;;;;;;29.13;14.30;;;;;;;6.61;100.00;96046.06;4988038;28;20502;-57
2022/11/24 05:32:58;;;;;;;23.70;12.57;;;;;;;6.54;100.00;96023.94;4987936;28;20054;-60
2022/11/24 05:35:24;;;;;;;26.90;13.75;;;;;;;6.72;100.00;96055.28;4988415;28;20128;-56
2022/11/24 05:37:51;;;;;;;26.88;13.43;;;;;;;6.81;100.00;96060.53;4988305;28;20496;-61
2022/11/24 05:40:17;;;;;;;39.13;15.38;;;;;;;6.71;100.00;96045.44;4988533;28;20081;-61
2022/11/24 05:42:44;;;;;;;26.02;15.70;;;;;;;6.76;100.00;96053.38;4988108;28;20130;-58
2022/11/24 05:45:19;;;;;;;33.75;17.20;;;;;;;6.75;100.00;96051.78;4986078;28;20073;-56
2022/11/24 05:47:46;;;;;;;39.13;19.52;;;;;;;6.77;100.00;96065.16;4986359;28;20058;-60
2022/11/24 05:50:15;;;;;;;48.42;24.08;;;;;;;6.73;100.00;96059.63;4988136;28;20153;-56
2022/11/24 05:52:42;;;;;;;55.63;26.92;;;;;;;6.77;100.00;96070.66;4987638;28;20113;-59
2022/11/24 05:55:09;;;;;;;;;;;;;;;6.71;100.00;96064.69;4636211;28;10000497;-58
2022/11/24 05:57:36;;;;;;;62.70;37.22;;;;;;;6.75;100.00;96076.53;4984700;28;19926;-62
2022/11/24 06:00:06;;;;;;;57.30;32.13;;;;;;;6.78;100.00;96061.28;4982828;28;20138;-61
2022/11/24 06:02:32;;;;;;;40.63;24.50;;;;;;;6.76;100.00;96058.88;4967019;28;20393;-61
2022/11/24 06:04:59;;;;;;;35.33;19.48;;;;;;;6.78;100.00;96067.53;4968383;28;20054;-62
2022/11/24 06:07:26;;;;;;;33.75;17.27;;;;;;;6.53;100.00;95994.84;4982597;28;20186;-57
2022/11/24 06:09:52;;;;;;;26.30;13.70;;;;;;;7.12;100.00;96063.75;4968050;28;20056;-61
2022/11/24 06:12:19;;;;;;;24.15;15.13;;;;;;;6.65;100.00;95991.91;4967887;28;20058;-57
2022/11/24 06:14:46;;;;;;;31.92;16.25;;;;;;;6.99;100.00;96056.88;4968006;28;20173;-58
2022/11/24 06:17:12;;;;;;;31.90;14.32;;;;;;;7.07;100.00;96069.56;4967563;28;20128;-58
2022/11/24 06:19:39;;;;;;;20.58;11.27;;;;;;;6.96;100.00;96052.09;4967666;28;20153;-58
2022/11/24 06:22:07;;;;;;;28.48;15.80;;;;;;;7.26;100.00;96072.22;4982160;28;20133;-61
2022/11/24 06:24:34;;;;;;;24.58;13.63;;;;;;;7.31;100.00;96085.66;4967751;28;20154;-60
2022/11/24 06:27:01;;;;;;;21.98;12.35;;;;;;;6.80;100.00;96003.88;4982356;28;20066;-58
2022/11/24 06:29:28;;;;;;;25.02;14.18;;;;;;;7.42;100.00;96070.06;4982384;28;20105;-58
2022/11/24 06:31:54;;;;;;;32.22;15.55;;;;;;;6.93;100.00;95966.72;4977795;28;20062;-61
2022/11/24 06:34:21;;;;;;;17.83;9.30;;;;;;;7.69;100.00;96074.34;4985705;28;20057;-58
2022/11/24 06:36:48;;;;;;;10.73;6.72;;;;;;;7.67;100.00;96087.72;4986741;28;20137;-62
2022/11/24 06:39:14;;;;;;;12.73;7.20;;;;;;;7.83;100.00;96078.44;4986818;28;20062;-60
2022/11/24 06:41:41;;;;;;;13.65;6.65;;;;;;;7.86;100.00;96085.94;4985622;28;20092;-57
2022/11/24 06:44:07;;;;;;;13.85;7.88;;;;;;;8.04;100.00;96095.22;4986975;28;20476;-58
2022/11/24 06:46:34;;;;;;;21.50;12.70;;;;;;;8.33;100.00;96089.66;4986629;28;20141;-57
2022/11/24 06:49:01;;;;;;;16.90;8.52;;;;;;;8.42;100.00;96078.31;4986751;28;20058;-57
2022/11/24 06:51:28;;;;;;;26.42;14.40;;;;;;;8.54;100.00;96108.38;4985014;28;20421;-60
2022/11/24 06:53:54;;;;;;;29.98;17.80;;;;;;;8.44;100.00;96081.50;4976558;28;20119;-59
2022/11/24 06:56:21;;;;;;;24.15;15.55;;;;;;;7.69;100.00;95975.16;4991871;28;20133;-62
2022/11/24 06:58:50;;;;;;;14.95;9.93;;;;;;;8.49;100.00;96100.44;4986100;28;20122;-59
2022/11/24 07:01:23;;;;;;;13.05;8.68;;;;;;;8.54;100.00;96097.34;4986282;28;20469;-59
2022/11/24 07:03:51;;;;;;;14.90;9.17;;;;;;;7.76;100.00;95973.63;4969679;28;20108;-61
2022/11/24 07:06:20;;;;;;;15.57;9.82;;;;;;;8.73;100.00;96103.47;4995790;28;20133;-59
2022/11/24 07:08:47;;;;;;;15.48;9.60;;;;;;;8.14;100.00;95975.97;4976899;28;20133;-54
2022/11/24 07:11:20;;;;;;;18.35;9.55;;;;;;;6.90;100.00;95737.06;4969762;28;20051;-59
2022/11/24 07:13:47;;;;;;;14.77;9.93;;;;;;;9.28;99.54;96076.63;4967631;28;20046;-59
2022/11/24 07:16:21;;;;;;;16.63;9.48;;;;;;;9.63;98.63;96090.66;4967196;28;20046;-59
2022/11/24 07:18:50;;;;;;;21.83;12.95;;;;;;;9.85;97.16;96105.38;4954718;28;20152;-61
2022/11/24 07:21:18;;;;;;;25.83;15.00;;;;;;;9.92;95.38;96089.63;4976044;28;20046;-61
2022/11/24 07:23:52;;;;;;;24.83;14.10;;;;;;;10.26;93.91;96092.91;4977256;28;20065;-60
2022/11/24 07:26:19;;;;;;;28.23;16.20;;;;;;;10.51;93.29;96094.56;4971814;28;20038;-60
2022/11/24 07:28:46;;;;;;;29.58;15.13;;;;;;;10.57;91.78;96059.75;4975273;28;20468;-58
2022/11/24 07:31:17;;;;;;;27.08;15.80;;;;;;;11.00;91.52;96093.03;4954744;28;20263;-59
2022/11/24 07:33:48;;;;;;;22.95;13.88;;;;;;;11.26;88.61;96095.38;4957935;28;20039;-59
2022/11/24 07:36:16;;;;;;;26.05;14.55;;;;;;;11.32;87.49;96072.41;4959024;28;20132;-59
2022/11/24 07:38:42;;;;;;;24.27;15.90;;;;;;;11.35;87.04;96037.56;4975515;28;20108;-59
2022/11/24 07:41:11;;;;;;;21.80;13.90;;;;;;;12.00;85.06;96093.25;4972145;28;20057;-62
2022/11/24 07:43:38;;;;;;;22.63;15.40;;;;;;;12.32;82.06;96085.56;4972242;28;20357;-60
2022/11/24 07:46:07;;;;;;;21.15;13.95;;;;;;;12.34;82.39;96030.44;4985515;28;20062;-60
2022/11/24 07:48:34;;;;;;;20.52;13.90;;;;;;;12.85;80.54;96058.22;4984986;28;20109;-61
2022/11/24 07:51:02;;;;;;;16.92;12.98;;;;;;;12.90;79.58;96041.13;4987519;28;20568;-60
2022/11/24 07:53:30;;;;;;;20.15;12.55;;;;;;;13.39;76.88;96076.06;4965351;28;20054;-61
2022/11/24 07:55:59;;;;;;;19.10;13.40;;;;;;;13.63;77.38;96081.38;4978199;28;20124;-60
2022/11/24 07:58:31;;;;;;;17.40;12.40;;;;;;;13.92;77.33;96075.50;4986309;28;20077;-60
2022/11/24 08:01:00;;;;;;;18.95;12.43;;;;;;;14.31;75.74;96065.50;4966913;28;20112;-59
2022/11/24 08:03:26;;;;;;;16.98;11.85;;;;;;;14.53;75.38;96071.56;4967280;28;20129;-60
2022/11/24 08:05:58;;;;;;;20.75;12.68;;;;;;;14.79;74.16;96074.38;4966780;28;20081;-57
2022/11/24 08:08:46;;;;;;;16.50;10.43;;;;;;;14.96;71.34;96072.50;4966752;28;20148;-60
2022/11/24 08:11:14;;;;;;;14.50;9.65;;;;;;;15.02;70.60;96079.19;4964730;28;20144;-59
2022/11/24 08:13:41;;;;;;;16.25;9.60;;;;;;;15.04;71.06;96076.75;4994175;28;20405;-56
2022/11/24 08:16:16;;;;;;;15.02;10.07;;;;;;;15.17;70.42;96070.16;4975915;28;20073;-61
2022/11/24 08:18:48;;;;;;;12.52;9.57;;;;;;;15.41;70.04;96079.38;4967086;28;20053;-58
2022/11/24 08:21:15;;;;;;;12.13;9.10;;;;;;;15.79;69.20;96077.88;4966474;28;20503;-63
2022/11/24 08:23:42;;;;;;;13.80;9.32;;;;;;;15.97;67.84;96075.53;4972390;28;20132;-58
2022/11/24 08:26:14;;;;;;;13.65;9.63;;;;;;;16.03;67.40;96073.81;4977542;28;20053;-57
2022/11/24 08:28:42;;;;;;;12.40;9.33;;;;;;;15.57;68.11;96085.06;4967086;28;20055;-57
2022/11/24 08:31:12;;;;;;;14.35;10.00;;;;;;;15.22;70.31;96074.50;4964943;28;20305;-61
2022/11/24 08:33:39;;;;;;;14.43;9.27;;;;;;;15.26;71.02;96075.22;4986241;28;20068;-60
2022/11/24 08:36:09;;;;;;;15.90;9.70;;;;;;;15.06;71.57;96071.56;4978211;28;20049;-57
2022/11/24 08:38:35;;;;;;;29.73;14.95;;;;;;;15.10;71.29;96072.28;4964017;28;20134;-58
2022/11/24 08:41:11;;;;;;;20.08;11.60;;;;;;;14.83;71.23;96030.50;4986766;28;20053;-62
2022/11/24 08:43:37;;;;;;;18.30;10.50;;;;;;;14.88;71.49;96032.00;4991686;28;20054;-60
2022/11/24 08:46:07;;;;;;;16.30;9.90;;;;;;;14.86;72.94;96071.47;4996873;28;20554;-63
2022/11/24 08:48:34;;;;;;;18.30;11.73;;;;;;;15.01;72.79;96069.25;4993629;28;20124;-58
2022/11/24 08:51:09;;;;;;;14.95;8.48;;;;;;;15.12;72.11;96075.44;4987512;28;20054;-58
2022/11/24 08:53:37;;;;;;;13.43;9.60;;;;;;;15.03;73.42;96083.56;4990182;28;20123;-59
2022/11/24 08:56:04;;;;;;;12.48;7.95;;;;;;;14.92;72.58;96077.38;5006177;28;20054;-61
2022/11/24 08:58:32;;;;;;;13.02;8.27;;;;;;;14.89;72.74;96083.78;4988298;28;20168;-56
2022/11/24 09:01:15;;;;;;;12.55;7.95;;;;;;;14.99;72.60;96078.03;5004682;28;20161;-58
2022/11/24 09:03:43;;;;;;;8.35;6.63;;;;;;;14.92;72.19;96074.56;4999556;28;20124;-61
2022/11/24 09:06:22;;;;;;;10.75;7.25;;;;;;;14.88;72.06;96062.69;4987319;28;20054;-57
2022/11/24 09:08:50;;;;;;;13.38;9.13;;;;;;;15.08;71.84;96091.44;4988743;28;20054;-56
2022/11/24 09:11:17;;;;;;;10.55;6.40;;;;;;;15.11;69.46;96073.88;4987459;28;20051;-56
2022/11/24 09:13:44;;;;;;;11.38;6.50;;;;;;;14.78;68.33;96038.53;4990768;28;20602;-57
2022/11/24 09:16:13;;;;;;;11.77;6.82;;;;;;;12.57;69.11;95700.09;4998022;28;20056;-60
2022/11/24 09:18:41;;;;;;;8.80;6.40;;;;;;;15.06;69.43;96086.28;5001046;28;20049;-57
2022/11/24 09:21:18;;;;;;;10.20;6.28;;;;;;;15.00;69.83;96095.56;4991282;28;20145;-58
2022/11/24 09:23:50;;;;;;;11.13;6.82;;;;;;;14.78;68.84;96044.09;4985969;28;20499;-57
2022/11/24 09:26:22;;;;;;;9.20;6.18;;;;;;;14.90;67.63;96047.13;4985704;28;20065;-60
2022/11/24 09:28:53;;;;;;;12.50;5.72;;;;;;;15.24;67.02;96088.78;4985599;28;20128;-57
2022/11/24 09:31:25;;;;;;;7.07;5.15;;;;;;;15.22;65.63;96079.28;5004899;28;20046;-58
2022/11/24 09:33:52;;;;;;;8.27;5.43;;;;;;;14.90;65.73;96049.91;4999774;28;20062;-61
2022/11/24 09:36:20;;;;;;;8.82;4.95;;;;;;;15.22;64.44;96074.50;4986348;28;20150;-60
2022/11/24 09:38:47;;;;;;;9.73;5.68;;;;;;;14.82;65.55;96033.69;4989120;28;20462;-56
2022/11/24 09:41:13;;;;;;;9.40;5.95;;;;;;;15.05;65.79;96081.91;4986879;28;20100;-56
2022/11/24 09:43:57;;;;;;;12.45;5.38;;;;;;;15.03;65.57;96083.56;4986850;28;20054;-58
2022/11/24 09:46:27;;;;;;;11.93;6.35;;;;;;;15.08;65.86;96130.47;4986708;28;20058;-58
2022/11/24 09:48:57;;;;;;;7.78;4.70;;;;;;;14.76;66.21;96052.13;5000935;28;20069;-57
2022/11/24 09:51:28;;;;;;;7.25;4.50;;;;;;;15.14;66.62;96070.25;4985612;28;20046;-59
2022/11/24 09:54:08;;;;;;;11.23;4.95;;;;;;;15.16;67.09;96070.59;4987468;28;20611;-60
2022/11/24 09:56:37;;;;;;;8.93;5.03;;;;;;;15.10;67.01;96061.91;4985906;28;20444;-57
2022/11/24 09:59:09;;;;;;;6.47;5.20;;;;;;;15.15;67.22;96069.81;4991103;28;20129;-62
2022/11/24 10:01:40;;;;;;;7.65;5.03;;;;;;;15.18;67.49;96074.53;4982771;28;20583;-56
2022/11/24 10:04:28;;;;;;;8.73;5.25;;;;;;;14.83;67.25;96018.53;4986040;28;20489;-57
2022/11/24 10:07:26;;;;;;;9.55;5.30;;;;;;;15.18;68.01;96062.59;4967621;28;20077;-57
2022/11/24 10:10:32;;;;;;;7.88;5.55;;;;;;;15.00;68.49;96067.69;4973890;28;20109;-62
2022/11/24 10:13:41;;;;;;;8.02;5.72;;;;;;;15.12;67.65;96067.88;4967514;28;20208;-56
2022/11/24 10:16:33;;;;;;;10.25;6.15;;;;;;;14.60;67.36;96015.72;4989090;28;20448;-57
2022/11/24 10:19:28;;;;;;;6.38;4.75;;;;;;;15.05;67.27;96064.38;4986075;28;20068;-58
2022/11/24 10:22:41;;;;;;;7.53;4.50;;;;;;;14.82;61.14;96061.59;4967686;28;20166;-59
2022/11/24 10:25:24;;;;;;;12.90;6.45;;;;;;;14.73;58.06;96058.53;4986816;28;20485;-58
2022/11/24 10:28:17;;;;;;;4.07;3.25;;;;;;;14.45;59.76;96064.50;5001718;28;20117;-57
2022/11/24 10:30:44;;;;;;;7.93;5.35;;;;;;;13.66;59.23;95955.34;4988833;28;20049;-57
2022/11/24 10:33:26;;;;;;;20.63;11.57;;;;;;;14.20;59.95;96097.44;4985802;28;20498;-63
2022/11/24 10:36:08;;;;;;;6.32;4.32;;;;;;;14.64;60.76;96073.00;4984852;28;20086;-52
2022/11/24 10:38:50;;;;;;;4.90;3.53;;;;;;;15.09;59.63;96099.38;4993616;28;20065;-57
2022/11/24 10:41:29;;;;;;;17.23;5.70;;;;;;;14.73;58.95;95997.22;4979005;28;20089;-56
2022/11/24 10:43:56;;;;;;;10.60;5.97;;;;;;;15.26;59.14;96052.09;4986104;28;20493;-61
2022/11/24 10:46:27;;;;;;;7.43;4.88;;;;;;;15.10;59.24;96022.06;4984779;28;20204;-60
2022/11/24 10:49:04;;;;;;;7.05;4.88;;;;;;;14.74;57.53;95987.63;4983691;28;20506;-58
2022/11/24 10:51:49;;;;;;;8.65;4.95;;;;;;;15.22;58.90;96049.38;4986568;28;20145;-60
2022/11/24 10:54:20;;;;;;;7.82;4.18;;;;;;;15.20;59.91;96054.59;4983441;28;20064;-57
2022/11/24 10:56:50;;;;;;;7.75;4.70;;;;;;;15.12;58.71;96031.63;4983530;28;20058;-61
2022/11/24 10:59:28;;;;;;;8.65;4.93;;;;;;;15.36;58.95;96063.09;4982297;28;20111;-58
2022/11/24 11:01:55;;;;;;;8.80;4.75;;;;;;;15.13;58.45;96030.38;4982940;28;20135;-57
2022/11/24 11:04:27;;;;;;;7.35;5.70;;;;;;;15.35;58.72;96053.13;4990277;28;20117;-56
2022/11/24 11:07:26;;;;;;;9.52;6.47;;;;;;;14.84;58.66;95990.22;4983226;28;20050;-56
2022/11/24 11:10:18;;;;;;;9.27;6.60;;;;;;;15.31;58.62;96055.19;4993408;28;20038;-58
2022/11/24 11:12:45;;;;;;;7.07;5.65;;;;;;;15.46;58.44;96056.53;4984075;28;20137;-56
2022/11/24 11:15:25;;;;;;;7.57;5.25;;;;;;;15.51;58.51;96064.44;4971974;28;20097;-53
2022/11/24 11:17:59;;;;;;;7.80;5.38;;;;;;;15.53;58.79;96055.63;4994239;28;20105;-56
2022/11/24 11:20:28;;;;;;;6.88;4.78;;;;;;;15.76;58.04;96048.00;4983848;28;20046;-54
2022/11/24 11:22:57;;;;;;;7.43;6.32;;;;;;;15.54;57.10;95988.22;4984814;28;20039;-57
2022/11/24 11:25:32;;;;;;;5.18;3.88;;;;;;;15.71;56.08;96056.88;4965649;28;20145;-61
2022/11/24 11:28:33;;;;;;;14.65;9.68;;;;;;;16.11;56.08;96061.28;4964456;28;20256;-66
2022/11/24 11:31:04;;;;;;;9.52;6.15;;;;;;;16.12;55.35;96060.03;4974349;28;20117;-62
2022/11/24 11:34:17;;;;;;;12.32;6.43;;;;;;;16.07;56.01;96063.38;4985179;28;20077;-65
2022/11/24 11:36:56;;;;;;;10.25;6.00;;;;;;;15.89;55.98;96068.50;5000443;28;20092;-59